createdAt,value
2023-03-15T00:02:01.697Z,11.92
2023-03-15T00:04:29.608Z,11.96
2023-03-15T00:06:57.274Z,12.02
2023-03-15T00:09:25.051Z,11.82
2023-03-15T00:11:54.988Z,11.80
2023-03-15T00:14:23.351Z,11.86
2023-03-15T00:16:51.303Z,11.77
2023-03-15T00:19:18.995Z,11.58
2023-03-15T00:21:46.649Z,11.53
2023-03-15T00:24:14.289Z,11.60
2023-03-15T00:26:41.987Z,11.53
2023-03-15T00:29:09.719Z,11.54
2023-03-15T00:31:37.606Z,11.57
2023-03-15T00:34:05.258Z,11.48
2023-03-15T00:36:33.302Z,11.34
2023-03-15T00:39:01.008Z,11.32
2023-03-15T00:41:28.678Z,11.24
2023-03-15T00:43:56.386Z,11.57
2023-03-15T00:46:24.124Z,11.67
2023-03-15T00:48:51.972Z,11.59
2023-03-15T00:51:21.599Z,11.56
2023-03-15T00:53:49.925Z,11.59
2023-03-15T00:56:19.523Z,11.36
2023-03-15T00:58:47.568Z,11.48
2023-03-15T01:01:33.564Z,11.39
2023-03-15T01:04:01.587Z,11.32
2023-03-15T01:06:29.386Z,11.30
2023-03-15T01:08:57.487Z,11.23
2023-03-15T01:11:26.996Z,11.26
2023-03-15T01:13:55.337Z,11.18
2023-03-15T01:16:23.002Z,11.24
2023-03-15T01:18:51.937Z,11.36
2023-03-15T01:21:21.555Z,11.40
2023-03-15T01:23:49.092Z,11.23
2023-03-15T01:26:17.300Z,11.29
2023-03-15T01:28:44.917Z,11.27
2023-03-15T01:31:20.917Z,11.20
2023-03-15T01:33:48.447Z,11.13
2023-03-15T01:36:15.984Z,11.07
2023-03-15T01:38:43.602Z,11.13
2023-03-15T01:41:12.575Z,11.10
2023-03-15T01:43:47.395Z,11.06
2023-03-15T01:46:24.864Z,11.32
2023-03-15T01:49:07.716Z,11.11
2023-03-15T01:51:43.066Z,11.19
2023-03-15T01:54:10.866Z,11.01
2023-03-15T01:56:41.148Z,10.86
2023-03-15T01:59:10.925Z,10.98
2023-03-15T02:01:45.841Z,10.82
2023-03-15T02:04:18.589Z,10.78
2023-03-15T02:06:47.957Z,10.75
2023-03-15T02:09:18.287Z,10.75
2023-03-15T02:11:47.601Z,10.79
2023-03-15T02:14:17.700Z,10.88
2023-03-15T02:16:45.780Z,10.84
2023-03-15T02:19:39.328Z,10.77
2023-03-15T02:22:09.877Z,10.73
2023-03-15T02:24:46.514Z,10.65
2023-03-15T02:27:14.215Z,10.59
2023-03-15T02:29:42.664Z,10.50
2023-03-15T02:32:10.255Z,10.54
2023-03-15T02:34:37.805Z,10.39
2023-03-15T02:37:05.364Z,10.57
2023-03-15T02:39:32.917Z,10.38
2023-03-15T02:42:02.336Z,10.27
2023-03-15T02:44:32.529Z,10.28
2023-03-15T02:47:02.779Z,10.29
2023-03-15T02:49:32.989Z,10.29
2023-03-15T02:52:00.619Z,10.35
2023-03-15T02:54:28.139Z,10.39
2023-03-15T02:56:55.766Z,10.48
2023-03-15T02:59:23.251Z,10.33
2023-03-15T03:01:51.432Z,10.19
2023-03-15T03:04:19.152Z,10.26
2023-03-15T03:06:46.869Z,10.26
2023-03-15T03:09:19.244Z,10.37
2023-03-15T03:11:46.783Z,10.53
2023-03-15T03:14:14.330Z,10.48
2023-03-15T03:16:43.156Z,10.36
2023-03-15T03:19:14.141Z,10.11
2023-03-15T03:21:44.550Z,10.30
2023-03-15T03:24:16.363Z,10.07
2023-03-15T03:26:46.425Z,9.97
2023-03-15T03:29:17.036Z,9.94
2023-03-15T03:31:47.352Z,9.92
2023-03-15T03:34:15.857Z,10.21
2023-03-15T03:36:43.770Z,10.17
2023-03-15T03:39:13.127Z,10.18
2023-03-15T03:41:40.848Z,9.94
2023-03-15T03:44:11.025Z,9.72
2023-03-15T03:46:39.850Z,9.60
2023-03-15T03:49:07.434Z,9.60
2023-03-15T03:51:36.481Z,9.63
2023-03-15T03:54:04.292Z,9.71
2023-03-15T03:56:31.811Z,9.75
2023-03-15T03:58:59.302Z,9.63
2023-03-15T04:01:38.704Z,9.66
2023-03-15T04:04:06.694Z,9.78
2023-03-15T04:06:34.698Z,9.80
2023-03-15T04:09:05.191Z,9.61
2023-03-15T04:11:42.750Z,9.59
2023-03-15T04:14:11.273Z,9.77
2023-03-15T04:16:39.261Z,9.63
2023-03-15T04:19:09.709Z,9.64
2023-03-15T04:21:38.286Z,9.81
2023-03-15T04:24:20.360Z,9.78
2023-03-15T04:27:06.762Z,9.70
2023-03-15T04:29:54.544Z,9.67
2023-03-15T04:32:43.805Z,9.83
2023-03-15T04:35:18.896Z,9.86
2023-03-15T04:38:09.710Z,9.72
2023-03-15T04:40:37.298Z,9.88
2023-03-15T04:43:16.634Z,9.85
2023-03-15T04:45:56.045Z,9.73
2023-03-15T04:48:42.128Z,9.61
2023-03-15T04:51:26.479Z,9.57
2023-03-15T04:54:17.210Z,9.46
2023-03-15T04:57:03.891Z,9.41
2023-03-15T04:59:51.670Z,9.60
2023-03-15T05:02:41.829Z,9.50
2023-03-15T05:05:26.508Z,9.32
2023-03-15T05:08:18.878Z,9.28
2023-03-15T05:11:01.237Z,9.20
2023-03-15T05:13:39.841Z,9.12
2023-03-15T05:16:33.417Z,9.17
2023-03-15T05:19:11.889Z,9.19
2023-03-15T05:21:47.070Z,8.98
2023-03-15T05:24:32.871Z,8.98
2023-03-15T05:27:18.846Z,8.92
2023-03-15T05:30:04.613Z,9.03
2023-03-15T05:33:05.008Z,8.89
2023-03-15T05:35:59.527Z,8.95
2023-03-15T05:38:36.498Z,8.90
2023-03-15T05:41:07.021Z,9.09
2023-03-15T05:43:47.836Z,9.04
2023-03-15T05:46:38.110Z,9.03
2023-03-15T05:49:29.017Z,8.87
2023-03-15T05:52:22.780Z,8.73
2023-03-15T05:54:57.587Z,8.62
2023-03-15T05:57:55.723Z,8.60
2023-03-15T06:00:45.309Z,8.76
2023-03-15T06:03:26.052Z,8.74
2023-03-15T06:06:01.266Z,9.00
2023-03-15T06:08:36.642Z,8.97
2023-03-15T06:11:04.166Z,9.06
2023-03-15T06:13:33.383Z,9.04
2023-03-15T06:16:06.143Z,9.13
2023-03-15T06:18:37.203Z,9.29
2023-03-15T06:21:04.685Z,9.29
2023-03-15T06:23:32.544Z,9.42
2023-03-15T06:26:00.088Z,9.52
2023-03-15T06:28:30.163Z,9.58
2023-03-15T06:31:05.364Z,9.60
2023-03-15T06:33:37.694Z,9.64
2023-03-15T06:36:06.405Z,9.72
2023-03-15T06:38:34.134Z,9.83
2023-03-15T06:41:01.648Z,9.93
2023-03-15T06:43:29.845Z,10.07
2023-03-15T06:46:00.187Z,10.25
2023-03-15T06:48:28.740Z,10.34
2023-03-15T06:50:58.197Z,10.23
2023-03-15T06:53:25.744Z,10.22
2023-03-15T06:55:53.307Z,10.27
2023-03-15T06:58:20.808Z,10.45
2023-03-15T07:00:49.790Z,10.48
2023-03-15T07:03:17.398Z,10.58
2023-03-15T07:05:46.776Z,10.69
2023-03-15T07:08:14.382Z,10.83
2023-03-15T07:10:41.994Z,10.87
2023-03-15T07:13:10.298Z,10.84
2023-03-15T07:15:37.968Z,10.84
2023-03-15T07:18:05.614Z,10.95
2023-03-15T07:20:33.737Z,11.09
2023-03-15T07:23:02.301Z,11.29
2023-03-15T07:25:29.977Z,11.52
2023-03-15T07:27:57.555Z,11.58
2023-03-15T07:30:25.111Z,11.67
2023-03-15T07:32:52.923Z,11.87
2023-03-15T07:35:20.692Z,12.04
2023-03-15T07:37:48.220Z,12.11
2023-03-15T07:40:16.385Z,12.20
2023-03-15T07:42:44.161Z,12.28
2023-03-15T07:45:13.658Z,12.49
2023-03-15T07:47:41.262Z,12.64
2023-03-15T07:50:09.150Z,12.84
2023-03-15T07:52:36.741Z,12.97
2023-03-15T07:55:08.497Z,13.10
2023-03-15T07:57:36.059Z,13.30
2023-03-15T08:00:04.807Z,13.51
2023-03-15T08:02:42.272Z,13.74
2023-03-15T08:05:10.347Z,14.04
2023-03-15T08:07:37.954Z,14.16
2023-03-15T08:10:06.432Z,14.53
2023-03-15T08:12:35.451Z,14.67
2023-03-15T08:15:03.032Z,14.90
2023-03-15T08:17:30.911Z,15.08
2023-03-15T08:19:58.457Z,15.12
2023-03-15T08:22:26.105Z,15.34
2023-03-15T08:24:53.668Z,15.60
2023-03-15T08:27:21.258Z,15.57
2023-03-15T08:29:48.847Z,15.68
2023-03-15T08:32:17.398Z,15.84
2023-03-15T08:34:45.390Z,15.94
2023-03-15T08:37:13.390Z,15.95
2023-03-15T08:39:41.049Z,15.96
2023-03-15T08:42:08.676Z,15.60
2023-03-15T08:44:36.457Z,15.60
2023-03-15T08:47:05.485Z,15.51
2023-03-15T08:49:33.085Z,15.26
2023-03-15T08:52:01.002Z,15.15
2023-03-15T08:54:28.575Z,15.08
2023-03-15T08:56:56.183Z,15.05
2023-03-15T08:59:31.951Z,15.01
2023-03-15T09:02:19.139Z,15.06
2023-03-15T09:04:46.767Z,14.95
2023-03-15T09:07:14.957Z,14.90
2023-03-15T09:09:42.563Z,14.79
2023-03-15T09:12:10.193Z,14.94
2023-03-15T09:14:37.785Z,14.94
2023-03-15T09:17:05.437Z,14.79
2023-03-15T09:19:33.116Z,15.02
2023-03-15T09:22:16.387Z,14.89
2023-03-15T09:24:44.678Z,14.94
2023-03-15T09:27:12.477Z,14.98
2023-03-15T09:29:39.999Z,14.92
2023-03-15T09:32:07.785Z,14.94
2023-03-15T09:34:41.702Z,15.03
2023-03-15T09:37:10.130Z,15.16
2023-03-15T09:39:37.703Z,15.38
2023-03-15T09:42:11.053Z,15.47
2023-03-15T09:44:43.882Z,15.64
2023-03-15T09:47:37.623Z,15.93
2023-03-15T09:50:10.113Z,16.23
2023-03-15T09:52:46.201Z,16.40
2023-03-15T09:55:21.622Z,16.55
2023-03-15T09:57:58.045Z,16.59
2023-03-15T10:00:39.945Z,16.46
2023-03-15T10:03:16.093Z,16.39
2023-03-15T10:05:46.272Z,16.59
2023-03-15T10:08:15.997Z,16.70
2023-03-15T10:10:52.388Z,17.16
2023-03-15T10:13:39.025Z,17.31
2023-03-15T10:16:13.406Z,17.24
2023-03-15T10:18:46.678Z,17.60
2023-03-15T10:21:24.449Z,18.12
2023-03-15T10:23:53.906Z,18.32
2023-03-15T10:26:24.906Z,18.97
2023-03-15T10:28:53.147Z,19.25
2023-03-15T10:31:36.825Z,19.33
2023-03-15T10:34:14.265Z,19.37
2023-03-15T10:36:50.104Z,19.34
2023-03-15T10:39:17.695Z,19.36
2023-03-15T10:41:49.532Z,18.97
2023-03-15T10:44:21.672Z,18.56
2023-03-15T10:47:15.988Z,18.20
2023-03-15T10:49:50.519Z,17.91
2023-03-15T10:52:35.719Z,17.87
2023-03-15T10:55:11.852Z,17.49
2023-03-15T10:57:41.179Z,17.45
2023-03-15T11:00:25.910Z,17.67
2023-03-15T11:03:02.204Z,18.31
2023-03-15T11:05:31.434Z,18.68
2023-03-15T11:08:00.301Z,18.97
2023-03-15T11:10:29.688Z,18.89
2023-03-15T11:13:10.585Z,19.60
2023-03-15T11:15:38.885Z,20.08
2023-03-15T11:18:08.467Z,20.19
2023-03-15T11:20:39.701Z,19.69
2023-03-15T11:23:15.388Z,18.30
2023-03-15T11:25:43.010Z,16.97
2023-03-15T11:28:18.198Z,15.78
2023-03-15T11:30:48.556Z,15.54
2023-03-15T11:33:24.729Z,16.59
2023-03-15T11:35:53.153Z,16.72
2023-03-15T11:38:24.394Z,16.62
2023-03-15T11:40:56.454Z,14.80
2023-03-15T11:43:34.630Z,14.27
2023-03-15T11:46:05.482Z,14.87
2023-03-15T11:48:48.711Z,15.10
2023-03-15T11:51:16.525Z,14.95
2023-03-15T11:54:04.312Z,15.29
2023-03-15T11:56:44.144Z,15.46
2023-03-15T11:59:13.893Z,16.00
2023-03-15T12:01:51.751Z,15.84
2023-03-15T12:04:25.537Z,15.93
2023-03-15T12:06:54.441Z,16.42
2023-03-15T12:09:36.499Z,16.36
2023-03-15T12:12:06.055Z,16.41
2023-03-15T12:14:35.528Z,17.00
2023-03-15T12:17:21.953Z,16.19
2023-03-15T12:19:58.032Z,16.22
2023-03-15T12:22:31.038Z,16.52
2023-03-15T12:25:02.451Z,16.11
2023-03-15T12:27:30.820Z,16.62
2023-03-15T12:30:01.031Z,17.67
2023-03-15T12:32:31.447Z,17.43
2023-03-15T12:35:09.092Z,17.69
2023-03-15T12:37:43.990Z,17.94
2023-03-15T12:40:20.671Z,17.92
2023-03-15T12:42:52.907Z,19.23
2023-03-15T12:45:20.604Z,20.38
2023-03-15T12:48:14.025Z,20.01
2023-03-15T12:50:44.316Z,21.20
2023-03-15T12:53:14.806Z,23.16
2023-03-15T12:55:43.537Z,23.72
2023-03-15T12:58:13.398Z,23.53
2023-03-15T13:00:42.497Z,24.08
2023-03-15T13:03:17.093Z,23.99
2023-03-15T13:05:47.058Z,26.06
2023-03-15T13:08:21.461Z,26.74
2023-03-15T13:10:52.128Z,25.32
2023-03-15T13:13:19.650Z,24.89
2023-03-15T13:16:15.688Z,25.02
2023-03-15T13:18:49.240Z,26.98
2023-03-15T13:21:24.637Z,27.86
2023-03-15T13:23:52.826Z,27.77
2023-03-15T13:26:39.251Z,27.87
2023-03-15T13:29:15.272Z,26.35
2023-03-15T13:31:43.780Z,26.01
2023-03-15T13:34:13.112Z,26.30
2023-03-15T13:36:43.785Z,26.46
2023-03-15T13:39:17.696Z,26.72
2023-03-15T13:41:45.312Z,27.04
2023-03-15T13:44:20.956Z,26.59
2023-03-15T13:46:49.633Z,28.38
2023-03-15T13:49:17.678Z,27.91
2023-03-15T13:51:46.181Z,26.45
2023-03-15T13:54:13.658Z,28.55
2023-03-15T13:56:55.929Z,28.04
2023-03-15T13:59:32.731Z,28.33
2023-03-15T14:02:02.823Z,27.13
2023-03-15T14:04:31.964Z,27.00
2023-03-15T14:07:25.324Z,26.42
2023-03-15T14:10:13.168Z,27.92
2023-03-15T14:12:40.831Z,28.77
2023-03-15T14:15:26.731Z,29.40
2023-03-15T14:17:58.162Z,30.57
2023-03-15T14:20:30.240Z,30.63
2023-03-15T14:22:59.725Z,30.95
2023-03-15T14:25:27.392Z,29.06
2023-03-15T14:27:55.102Z,28.97
2023-03-15T14:30:24.640Z,28.92
2023-03-15T14:32:54.202Z,29.24
2023-03-15T14:35:36.786Z,27.78
2023-03-15T14:38:08.913Z,27.48
2023-03-15T14:40:38.875Z,27.36
2023-03-15T14:43:06.981Z,27.94
2023-03-15T14:45:35.803Z,27.16
2023-03-15T14:48:06.293Z,26.33
2023-03-15T14:50:39.271Z,26.02
2023-03-15T14:53:07.718Z,26.74
2023-03-15T14:55:37.009Z,26.40
2023-03-15T14:58:05.382Z,26.43
2023-03-15T15:00:33.112Z,25.71
2023-03-15T15:03:01.614Z,25.34
2023-03-15T15:05:31.108Z,23.99
2023-03-15T15:08:10.820Z,23.36
2023-03-15T15:10:39.153Z,22.66
2023-03-15T15:13:07.614Z,21.69
2023-03-15T15:15:51.814Z,21.34
2023-03-15T15:18:23.324Z,21.31
2023-03-15T15:20:54.442Z,21.30
2023-03-15T15:23:29.392Z,21.08
2023-03-15T15:25:58.329Z,20.97
2023-03-15T15:28:36.486Z,20.78
2023-03-15T15:31:07.271Z,20.48
2023-03-15T15:33:35.244Z,20.07
2023-03-15T15:36:02.947Z,19.66
2023-03-15T15:38:34.908Z,20.07
2023-03-15T15:41:02.524Z,20.05
2023-03-15T15:43:32.337Z,19.70
2023-03-15T15:46:02.299Z,20.23
2023-03-15T15:48:30.070Z,19.92
2023-03-15T15:50:57.968Z,19.39
2023-03-15T15:53:25.748Z,19.66
2023-03-15T15:55:53.375Z,19.92
2023-03-15T15:58:22.902Z,19.82
2023-03-15T16:00:50.480Z,19.63
2023-03-15T16:03:18.832Z,19.31
2023-03-15T16:05:46.927Z,19.32
2023-03-15T16:08:36.225Z,19.53
2023-03-15T16:11:05.328Z,19.23
2023-03-15T16:13:34.094Z,19.06
2023-03-15T16:16:01.746Z,18.75
2023-03-15T16:18:31.426Z,18.20
2023-03-15T16:21:00.646Z,18.79
2023-03-15T16:23:29.181Z,18.95
2023-03-15T16:25:57.885Z,18.62
2023-03-15T16:28:25.916Z,18.85
2023-03-15T16:30:53.629Z,18.40
2023-03-15T16:33:21.803Z,18.00
2023-03-15T16:35:50.557Z,17.93
2023-03-15T16:38:24.672Z,17.90
2023-03-15T16:40:53.361Z,17.17
2023-03-15T16:43:21.036Z,17.27
2023-03-15T16:45:48.998Z,16.91
2023-03-15T16:48:16.542Z,16.76
2023-03-15T16:50:44.586Z,16.81
2023-03-15T16:53:13.355Z,16.83
2023-03-15T16:55:40.880Z,16.83
2023-03-15T16:58:15.286Z,16.69
2023-03-15T17:00:47.104Z,16.33
2023-03-15T17:03:15.025Z,16.64
2023-03-15T17:05:44.937Z,16.31
2023-03-15T17:08:14.309Z,16.12
2023-03-15T17:10:42.641Z,16.14
2023-03-15T17:13:11.663Z,16.01
2023-03-15T17:15:39.289Z,16.08
2023-03-15T17:18:14.012Z,16.25
2023-03-15T17:20:41.579Z,16.05
2023-03-15T17:23:09.680Z,15.86
2023-03-15T17:25:37.760Z,15.52
2023-03-15T17:28:05.545Z,15.42
2023-03-15T17:30:34.509Z,15.78
2023-03-15T17:33:02.540Z,15.81
2023-03-15T17:35:33.972Z,15.81
2023-03-15T17:38:06.267Z,15.61
2023-03-15T17:40:35.914Z,15.37
2023-03-15T17:43:04.236Z,15.28
2023-03-15T17:45:33.265Z,14.84
2023-03-15T17:48:01.574Z,14.87
2023-03-15T17:50:30.806Z,14.99
2023-03-15T17:53:00.325Z,15.12
2023-03-15T17:55:28.528Z,15.11
2023-03-15T17:57:56.073Z,14.81
2023-03-15T18:00:24.322Z,14.78
2023-03-15T18:02:56.332Z,14.61
2023-03-15T18:05:26.150Z,14.64
2023-03-15T18:07:59.096Z,14.61
2023-03-15T18:10:31.799Z,14.51
2023-03-15T18:12:59.268Z,14.44
2023-03-15T18:15:26.775Z,14.21
2023-03-15T18:17:54.262Z,14.33
2023-03-15T18:20:24.201Z,14.25
2023-03-15T18:22:52.123Z,14.32
2023-03-15T18:25:32.983Z,14.26
2023-03-15T18:28:00.862Z,14.19
2023-03-15T18:30:29.202Z,14.24
2023-03-15T18:32:57.746Z,14.32
2023-03-15T18:35:35.510Z,14.16
2023-03-15T18:38:04.454Z,14.08
2023-03-15T18:40:33.397Z,14.12
2023-03-15T18:43:01.588Z,13.86
2023-03-15T18:45:30.823Z,14.24
2023-03-15T18:48:00.106Z,14.00
2023-03-15T18:50:28.641Z,14.07
2023-03-15T18:52:56.253Z,13.79
2023-03-15T18:55:23.860Z,13.74
2023-03-15T18:57:52.309Z,13.55
2023-03-15T19:00:26.128Z,13.58
2023-03-15T19:02:55.086Z,13.49
2023-03-15T19:05:22.648Z,13.40
2023-03-15T19:07:50.579Z,13.48
2023-03-15T19:10:19.752Z,13.93
2023-03-15T19:12:48.314Z,13.87
2023-03-15T19:15:17.681Z,13.66
2023-03-15T19:17:47.032Z,13.69
2023-03-15T19:20:16.030Z,13.58
2023-03-15T19:22:45.352Z,13.66
2023-03-15T19:25:14.131Z,13.59
2023-03-15T19:27:42.247Z,13.44
2023-03-15T19:30:14.606Z,13.50
2023-03-15T19:32:43.188Z,13.49
2023-03-15T19:35:10.899Z,13.21
2023-03-15T19:37:38.562Z,13.31
2023-03-15T19:40:09.702Z,13.43
2023-03-15T19:42:37.280Z,13.48
2023-03-15T19:45:05.468Z,13.39
2023-03-15T19:47:32.980Z,13.58
2023-03-15T19:50:01.714Z,13.53
2023-03-15T19:52:29.426Z,13.49
2023-03-15T19:54:57.376Z,13.14
2023-03-15T19:57:24.910Z,13.22
2023-03-15T19:59:52.481Z,13.33
2023-03-15T20:02:20.042Z,13.19
2023-03-15T20:04:47.798Z,13.53
2023-03-15T20:07:15.909Z,13.19
2023-03-15T20:09:43.625Z,13.09
2023-03-15T20:12:12.738Z,13.01
2023-03-15T20:14:40.280Z,13.05
2023-03-15T20:17:08.040Z,12.87
2023-03-15T20:19:36.381Z,12.75
2023-03-15T20:22:04.973Z,12.73
2023-03-15T20:24:33.410Z,12.89
2023-03-15T20:27:02.315Z,12.90
2023-03-15T20:29:31.837Z,12.99
2023-03-15T20:31:59.595Z,13.11
2023-03-15T20:34:27.947Z,12.64
2023-03-15T20:36:55.776Z,12.70
2023-03-15T20:39:24.494Z,12.86
2023-03-15T20:41:52.640Z,12.85
2023-03-15T20:44:21.133Z,12.57
2023-03-15T20:46:49.601Z,12.58
2023-03-15T20:49:17.690Z,12.47
2023-03-15T20:51:45.629Z,12.25
2023-03-15T20:54:13.146Z,12.12
2023-03-15T20:56:40.679Z,12.18
2023-03-15T20:59:08.512Z,12.00
2023-03-15T21:01:36.032Z,11.88
2023-03-15T21:04:07.402Z,11.71
2023-03-15T21:06:35.255Z,11.74
2023-03-15T21:09:03.010Z,11.98
2023-03-15T21:11:30.885Z,11.91
2023-03-15T21:13:58.600Z,12.00
2023-03-15T21:16:26.655Z,11.86
2023-03-15T21:18:55.207Z,11.63
2023-03-15T21:21:23.240Z,11.70
2023-03-15T21:23:50.747Z,11.59
2023-03-15T21:26:18.365Z,11.72
2023-03-15T21:28:46.961Z,11.51
2023-03-15T21:31:14.614Z,11.45
2023-03-15T21:33:42.181Z,11.52
2023-03-15T21:36:09.838Z,11.37
2023-03-15T21:38:37.752Z,11.53
2023-03-15T21:41:10.168Z,11.40
2023-03-15T21:43:37.891Z,11.21
2023-03-15T21:46:07.437Z,11.40
2023-03-15T21:48:35.271Z,11.21
2023-03-15T21:51:03.483Z,11.28
2023-03-15T21:53:31.897Z,11.15
2023-03-15T21:56:00.126Z,10.95
2023-03-15T21:58:28.291Z,10.86
2023-03-15T22:00:59.950Z,10.41
2023-03-15T22:03:28.117Z,10.68
2023-03-15T22:05:55.975Z,10.54
2023-03-15T22:08:23.847Z,10.34
2023-03-15T22:10:58.958Z,10.36
2023-03-15T22:13:27.014Z,10.73
2023-03-15T22:15:54.944Z,10.69
2023-03-15T22:18:22.467Z,10.56
2023-03-15T22:20:51.329Z,10.42
2023-03-15T22:23:18.967Z,10.43
2023-03-15T22:25:46.699Z,10.56
2023-03-15T22:28:14.599Z,10.62
2023-03-15T22:30:43.100Z,10.50
2023-03-15T22:33:12.328Z,10.34
2023-03-15T22:35:39.933Z,10.39
2023-03-15T22:38:10.521Z,10.48
2023-03-15T22:40:39.609Z,10.41
2023-03-15T22:43:07.990Z,10.43
2023-03-15T22:45:35.578Z,10.24
2023-03-15T22:48:03.541Z,10.28
2023-03-15T22:50:31.490Z,10.33
2023-03-15T22:52:59.192Z,10.56
2023-03-15T22:55:27.593Z,10.40
2023-03-15T22:57:55.285Z,10.30
2023-03-15T23:00:25.214Z,10.31
2023-03-15T23:02:55.733Z,10.34
2023-03-15T23:05:23.787Z,10.58
2023-03-15T23:07:51.428Z,10.39
2023-03-15T23:10:18.940Z,10.26
2023-03-15T23:12:46.481Z,10.25
2023-03-15T23:15:14.898Z,10.25
2023-03-15T23:17:46.881Z,10.11
2023-03-15T23:20:15.536Z,10.09
2023-03-15T23:22:43.819Z,10.09
2023-03-15T23:25:12.126Z,10.21
2023-03-15T23:27:40.547Z,10.31
2023-03-15T23:30:10.645Z,10.21
2023-03-15T23:32:38.348Z,10.25
2023-03-15T23:35:08.110Z,10.00
2023-03-15T23:37:36.024Z,10.11
2023-03-15T23:40:09.747Z,9.96
2023-03-15T23:42:37.852Z,9.91
2023-03-15T23:45:05.984Z,10.07
2023-03-15T23:47:33.567Z,10.25
2023-03-15T23:50:02.718Z,10.17
2023-03-15T23:52:30.290Z,9.93
2023-03-15T23:54:57.861Z,9.89
2023-03-15T23:57:25.570Z,9.98
2023-03-15T23:59:53.072Z,10.13
